Terminal Aerodrome Forecast
Issued by NWS

Home | Current Version | Previous Version | Text Only | Print | Product List | Glossary On
Versions: 1 2 3 4 5 6 7 8 9 10 11 12 13 14 15 16 17 18 19 20 21 22 23 24
000
FTUS43 KABR 271132
TAFPIR
TAF
KPIR 271132Z 2712/2812 VRB06KT P6SM SCT250
     FM271600 16014KT P6SM FEW120 BKN250
      TEMPO 2723/2801 -SHRA SCT090 OVC110
     FM280100 15011KT P6SM -SHRA VCTS SCT060 BKN080CB OVC100
     FM280400 15010KT P6SM SCT100 BKN200=

USA.gov is the U.S. government's official web portal to all federal, state and local government web resources and services.